메인 페이지
METAR-TAF:

METAR-TAF

공항 :

라 아우로라 국제공항

과테말라, 과테말라

위도: 14-35N, 경도: 090-31W, 고도: 1489m

현재 날씨관측

예보는 18분 전, 20:00시(UTC)에 발표되었습니다.
북동10kt
온도 25°C
습도 50%
기압 1022 hPa
시정 10km 이상
고도 2000ft 상공 구름 보통, 타워링 적운.
고도 20000ft 상공 구름 조금

METAR: MGGT 182000Z 04010KT 9999 SCT020TCU 25/14 Q1022 A3018 FEW200 TCU SE

시각: 14:18 (20:18 UTC)

예보

예보는 3 시간 18분 전, 17:00시(UTC)에 발표되었습니다.
예보 대상 시간: 18일 18시부터 19일 18시까지 (UTC)
12kt
시정 10km 이상
고도 1800ft 상공 구름 보통
일시적
18일 21시부터 18일 24시까지 (UTC)
남남동8kt
전환 중
19일 02시부터 19일 04시까지 (UTC)
8kt
시정 10km 이상
1500m 미만 상공 구름 및 적란운 없음
전환 중
19일 08시부터 19일 10시까지 (UTC)
고도 1400ft 상공 구름 많음
전환 중
19일 15시부터 19일 17시까지 (UTC)
고도 1800ft 상공 구름 보통

TAF: MGGT 181700Z 1818/1918 36012KT 9999 SCT018 TX26/1820Z TN14/1912Z TEMPO 1821/1824 16008KT SCT020TUC BECMG 1902/1904 36008KT CAVOK BECMG 1908/1910 BKN014 BECMG 1915/1917 SCT018

4,000개 이상의 공항 관측 자료 및 예보 (METAR 및 TAF 보고).

지도상에서 검색 가능한 기상관측소가 노란 점과 빨간 점으로 표시되어 있습니다.

기상관측소 명을 보려면 표시 위로 마우스를 이동하세요.

날씨 관측과 예보를 보려면 클릭하세요.

지도 변경 : 확대하려면 엑스 표시가 있는 녹색 버튼, 축소하려면 빼기 표시가 있는 녹색 버튼, 다음 페이지의 지도를 보려면 녹색 화살표를 클릭하세요.


METAR-TAF: